Time;durP1;ratioP1;P1;durP2;ratioP2;P2;SDS_P1;SDS_P2;PMS_P1;PMS_P2;Temp;Humidity;BMP_temperature;BMP_pressure;BME280_temperature;BME280_humidity;BME280_pressure;Samples;Min_cycle;Max_cycle;Signal;HPM_P1;HPM_P2
2022/05/03 00:02:25;;;;;;;5.43;3.70;;;;;;;7.75;74.99;95510.88;1765409;81;21053;-68
2022/05/03 00:04:58;;;;;;;8.50;4.93;;;;;;;7.74;74.35;95508.69;1779726;81;21475;-68
2022/05/03 00:07:35;;;;;;;5.70;3.40;;;;;;;7.68;75.21;95515.30;1772545;81;21025;-67
2022/05/03 00:10:07;;;;;;;3.97;3.57;;;;;;;7.66;75.52;95511.84;1780013;81;21002;-67
2022/05/03 00:13:03;;;;;;;6.23;3.90;;;;;;;7.69;76.42;95510.49;1778060;81;20975;-67
2022/05/03 00:15:34;;;;;;;5.53;3.53;;;;;;;7.69;76.57;95508.31;1779936;81;21032;-67
2022/05/03 00:18:03;;;;;;;7.67;4.03;;;;;;;7.72;75.94;95506.52;1746317;81;21499;-67
2022/05/03 00:20:30;;;;;;;6.40;4.03;;;;;;;7.74;75.65;95509.14;1779826;80;21010;-67
2022/05/03 00:22:57;;;;;;;7.27;4.83;;;;;;;7.80;76.15;95504.68;1779645;81;20990;-67
2022/05/03 00:25:27;;;;;;;5.57;4.00;;;;;;;7.90;75.96;95507.23;1750562;81;21484;-67
2022/05/03 00:27:55;;;;;;;8.47;3.90;;;;;;;7.90;75.60;95508.09;1779987;80;21005;-68
2022/05/03 00:30:22;;;;;;;5.83;4.40;;;;;;;7.93;75.77;95509.83;1779986;80;21507;-68
2022/05/03 00:32:48;;;;;;;6.37;3.97;;;;;;;7.97;75.63;95504.53;1780136;81;21022;-68
2022/05/03 00:35:18;;;;;;;7.23;3.97;;;;;;;7.99;75.24;95508.02;1780000;81;21014;-68
2022/05/03 00:37:44;;;;;;;6.07;3.57;;;;;;;8.01;75.00;95504.94;1779975;80;21479;-68
2022/05/03 00:40:12;;;;;;;5.77;3.60;;;;;;;8.01;74.59;95503.63;1780057;81;20962;-68
2022/05/03 00:43:17;;;;;;;6.03;3.97;;;;;;;8.01;74.62;95501.00;1779917;81;21503;-68
2022/05/03 00:45:55;;;;;;;5.67;3.37;;;;;;;7.91;74.15;95495.41;1779802;80;20982;-67
2022/05/03 00:48:58;;;;;;;6.60;5.23;;;;;;;7.70;74.24;95500.40;1766055;81;21044;-67
2022/05/03 00:51:52;;;;;;;4.00;3.23;;;;;;;7.47;76.19;95499.28;1779771;81;21037;-67
2022/05/03 00:54:36;;;;;;;5.78;3.65;;;;;;;7.37;75.78;95502.42;1755615;81;21065;-67
2022/05/03 00:57:20;;;;;;;6.20;3.23;;;;;;;7.37;75.50;95492.38;1762248;81;21002;-67
2022/05/03 01:00:14;;;;;;;3.40;2.90;;;;;;;7.34;75.14;95501.14;1779792;80;20978;-67
2022/05/03 01:03:10;;;;;;;5.37;3.33;;;;;;;7.25;75.62;95492.46;1780038;81;20946;-67
2022/05/03 01:06:10;;;;;;;4.13;3.47;;;;;;;7.23;75.66;95494.22;1779981;81;21009;-68
2022/05/03 01:08:55;;;;;;;6.97;5.10;;;;;;;7.23;76.27;95495.12;1751655;81;21487;-68
2022/05/03 01:11:53;;;;;;;7.13;5.60;;;;;;;7.21;75.84;95503.44;1751201;81;20994;-68
2022/05/03 01:15:01;;;;;;;7.97;5.57;;;;;;;7.20;76.07;95503.43;1779630;81;21094;-68
2022/05/03 01:17:59;;;;;;;6.00;5.10;;;;;;;7.14;76.46;95501.28;1780142;81;21021;-68
2022/05/03 01:20:49;;;;;;;6.27;4.53;;;;;;;7.07;78.10;95498.27;1770842;79;21483;-68
2022/05/03 01:23:51;;;;;;;5.00;3.37;;;;;;;7.04;78.42;95505.30;1791918;80;20977;-67
2022/05/03 01:26:56;;;;;;;33.83;14.10;;;;;;;7.02;77.76;95500.49;1792588;80;21017;-67
2022/05/03 01:29:32;;;;;;;52.87;22.43;;;;;;;6.91;77.92;95497.95;1792202;80;21495;-67
2022/05/03 01:32:06;;;;;;;66.17;27.27;;;;;;;6.85;79.06;95497.96;1792705;80;21041;-67
2022/05/03 01:34:35;;;;;;;25.80;11.50;;;;;;;6.84;79.21;95502.79;1792687;80;21037;-67
2022/05/03 01:37:34;;;;;;;4.33;3.40;;;;;;;6.88;78.27;95500.59;1792568;80;20989;-67
2022/05/03 01:40:08;;;;;;;4.90;3.33;;;;;;;6.91;77.82;95494.01;1793064;80;20994;-67
2022/05/03 01:43:08;;;;;;;5.37;3.77;;;;;;;7.04;78.30;95501.36;1762108;80;21053;-68
2022/05/03 01:46:11;;;;;;;9.20;5.03;;;;;;;7.20;78.30;95503.43;1792301;80;21001;-68
2022/05/03 01:52:03;;;;;;;5.03;3.00;;;;;;;7.40;78.00;95491.03;1792173;80;21559;-68
2022/05/03 01:54:51;;;;;;;5.60;2.97;;;;;;;7.48;77.71;95486.58;1792793;80;21056;-68
2022/05/03 01:58:10;;;;;;;9.70;5.90;;;;;;;7.54;77.08;95489.62;1792519;80;21049;-68
2022/05/03 02:00:37;;;;;;;29.63;13.40;;;;;;;7.50;77.53;95491.83;1792877;80;21502;-68
2022/05/03 02:03:27;;;;;;;10.77;5.13;;;;;;;7.41;77.00;95486.64;1792567;80;20982;-68
2022/05/03 02:06:13;;;;;;;5.40;3.80;;;;;;;7.34;77.03;95489.33;1792441;80;21033;-67
2022/05/03 02:09:06;;;;;;;5.50;3.77;;;;;;;7.33;76.91;95482.35;1792339;80;21080;-67
2022/05/03 02:11:58;;;;;;;6.78;3.60;;;;;;;7.34;77.16;95485.84;1792897;80;21002;-67
2022/05/03 02:14:44;;;;;;;23.37;9.03;;;;;;;7.43;77.62;95484.88;1792578;80;21048;-67
2022/05/03 02:17:52;;;;;;;14.37;5.90;;;;;;;7.49;77.39;95491.41;1792776;80;21029;-67
2022/05/03 02:20:53;;;;;;;5.00;3.37;;;;;;;7.49;76.97;95488.79;1792965;80;21053;-68
2022/05/03 02:23:37;;;;;;;4.50;3.37;;;;;;;7.51;77.06;95484.38;1781466;80;21029;-67
2022/05/03 02:26:11;;;;;;;;;;;;;;;7.60;77.03;95479.05;1791385;80;20981;-67
2022/05/03 02:29:09;;;;;;;5.47;3.20;;;;;;;7.67;76.75;95485.12;1801229;80;20112;-67
2022/05/03 02:31:44;;;;;;;19.10;8.67;;;;;;;7.59;76.25;95479.50;1801477;80;21054;-68
2022/05/03 02:34:32;;;;;;;7.27;5.07;;;;;;;7.35;77.04;95479.25;1800853;80;21110;-68
2022/05/03 02:37:06;;;;;;;11.03;6.37;;;;;;;7.24;77.62;95478.92;1801176;80;21018;-68
2022/05/03 02:39:38;;;;;;;12.40;6.37;;;;;;;7.22;78.35;95482.86;1799885;80;21576;-68
2022/05/03 02:42:08;;;;;;;7.27;4.40;;;;;;;7.22;78.40;95487.23;1772503;80;21097;-68
2022/05/03 02:44:35;;;;;;;4.93;3.37;;;;;;;7.24;78.36;95482.86;1801300;80;21014;-68
2022/05/03 02:47:16;;;;;;;9.80;6.87;;;;;;;7.27;77.85;95478.44;1772096;80;21425;-68
2022/05/03 02:50:09;;;;;;;11.57;7.17;;;;;;;7.29;77.63;95480.63;1800262;80;20983;-67
2022/05/03 02:53:02;;;;;;;10.20;7.00;;;;;;;7.27;77.39;95470.57;1801250;80;20979;-67
2022/05/03 02:55:54;;;;;;;10.37;5.87;;;;;;;7.28;77.34;95480.63;1801434;80;20971;-67
2022/05/03 02:59:00;;;;;;;8.17;5.63;;;;;;;7.22;77.52;95476.75;1801069;80;20998;-67
2022/05/03 03:01:49;;;;;;;4.33;3.40;;;;;;;7.14;78.02;95474.17;1800978;80;21041;-67
2022/05/03 03:04:38;;;;;;;75.73;23.80;;;;;;;7.10;78.40;95472.45;1773063;80;21010;-67
2022/05/03 03:07:06;;;;;;;51.33;18.60;;;;;;;7.03;78.00;95478.20;1800888;80;21112;-68
2022/05/03 03:09:56;;;;;;;38.10;13.70;;;;;;;7.02;78.41;95486.06;1801193;80;21009;-67
2022/05/03 03:12:57;;;;;;;69.70;23.97;;;;;;;7.00;78.49;95487.38;1801249;80;21024;-68
2022/05/03 03:15:29;;;;;;;23.23;9.20;;;;;;;6.96;78.35;95492.67;1801169;80;21532;-68
2022/05/03 03:17:58;;;;;;;12.70;6.83;;;;;;;6.94;78.43;95494.84;1801390;80;21052;-68
2022/05/03 03:20:28;;;;;;;16.43;7.87;;;;;;;6.93;78.75;95496.19;1800750;80;21435;-68
2022/05/03 03:22:56;;;;;;;16.63;7.73;;;;;;;6.98;79.63;95498.76;1800976;80;21076;-68
2022/05/03 03:25:23;;;;;;;16.60;7.63;;;;;;;7.07;79.85;95498.71;1801168;80;20985;-67
2022/05/03 03:27:53;;;;;;;14.40;6.70;;;;;;;7.16;79.60;95502.59;1801313;80;21001;-68
2022/05/03 03:30:21;;;;;;;18.70;9.67;;;;;;;7.20;79.46;95494.25;1801040;80;21020;-67
2022/05/03 03:32:52;;;;;;;23.33;10.30;;;;;;;7.33;79.25;95491.54;1801007;80;21033;-67
2022/05/03 03:35:20;;;;;;;30.43;10.00;;;;;;;7.40;79.03;95494.97;1800144;80;21501;-67
2022/05/03 03:37:50;;;;;;;19.03;9.03;;;;;;;7.47;78.49;95497.11;1800821;80;21073;-67
2022/05/03 03:40:18;;;;;;;11.90;3.90;;;;;;;7.46;78.28;95494.04;1801061;80;21530;-67
2022/05/03 03:42:46;;;;;;;10.30;4.90;;;;;;;7.51;78.33;95495.77;1801069;80;21080;-67
2022/05/03 03:45:16;;;;;;;16.67;8.63;;;;;;;7.55;77.89;95489.59;1801245;80;20973;-67
2022/05/03 03:47:45;;;;;;;19.13;9.20;;;;;;;7.66;78.34;95498.70;1801059;80;21013;-67
2022/05/03 03:50:13;;;;;;;16.20;9.00;;;;;;;7.70;77.73;95493.84;1800903;80;21009;-67
2022/05/03 03:52:43;;;;;;;8.60;4.93;;;;;;;7.69;78.05;95496.05;1801234;80;21021;-68
2022/05/03 03:55:12;;;;;;;13.43;8.77;;;;;;;7.72;77.87;95501.27;1801051;80;21004;-68
2022/05/03 03:57:40;;;;;;;28.23;9.43;;;;;;;7.77;77.90;95495.97;1800897;80;21016;-68
2022/05/03 04:00:13;;;;;;;17.90;9.60;;;;;;;7.84;77.69;95498.08;1801230;80;21001;-68
2022/05/03 04:02:45;;;;;;;17.77;10.25;;;;;;;7.94;77.61;95503.25;1801282;80;20977;-68
2022/05/03 04:05:19;;;;;;;17.27;9.53;;;;;;;7.97;77.05;95502.35;1800932;80;21040;-68
2022/05/03 04:07:47;;;;;;;19.13;9.07;;;;;;;8.06;76.73;95507.94;1800772;80;21058;-68
2022/05/03 04:10:14;;;;;;;16.13;8.60;;;;;;;8.07;76.80;95504.00;1800945;80;20993;-69
2022/05/03 04:12:42;;;;;;;16.00;7.30;;;;;;;8.07;76.48;95506.63;1801307;80;21004;-68
2022/05/03 04:15:10;;;;;;;12.83;6.70;;;;;;;8.10;76.30;95506.59;1800976;80;21076;-69
2022/05/03 04:17:36;;;;;;;19.03;11.53;;;;;;;8.12;77.09;95506.59;1800961;80;21017;-70
2022/05/03 04:20:05;;;;;;;17.97;10.17;;;;;;;8.11;77.36;95507.00;1800912;80;20977;-70
2022/05/03 04:22:35;;;;;;;21.20;12.40;;;;;;;8.13;77.56;95514.88;1758551;80;21018;-70
2022/05/03 04:25:04;;;;;;;19.43;11.17;;;;;;;8.15;77.59;95517.06;1787015;80;21021;-71
2022/05/03 04:27:30;;;;;;;17.33;9.63;;;;;;;8.18;76.90;95519.20;1787054;80;21476;-70
2022/05/03 04:29:58;;;;;;;17.57;11.17;;;;;;;8.18;76.56;95520.96;1787281;80;21025;-70
2022/05/03 04:32:32;;;;;;;22.87;12.43;;;;;;;8.18;76.54;95517.88;1787050;80;21013;-67
2022/05/03 04:34:59;;;;;;;;;;;;;;;8.26;76.88;95520.42;1789650;80;21013;-70
2022/05/03 04:37:26;;;;;;;18.63;11.03;;;;;;;8.32;77.05;95527.41;1755761;82;20106;-69
2022/05/03 04:39:53;;;;;;;22.40;11.80;;;;;;;8.32;77.43;95520.37;1786956;80;21014;-69
2022/05/03 04:42:20;;;;;;;10.03;5.30;;;;;;;8.41;77.03;95520.73;1787342;80;21009;-69
2022/05/03 04:44:46;;;;;;;6.60;4.97;;;;;;;8.45;75.74;95515.88;1787009;80;21061;-69
2022/05/03 04:47:13;;;;;;;8.97;4.53;;;;;;;8.53;75.77;95509.22;1754466;80;21013;-69
2022/05/03 04:49:40;;;;;;;68.20;48.80;;;;;;;8.59;75.27;95510.03;1787140;80;20997;-70
2022/05/03 04:52:06;;;;;;;35.40;25.47;;;;;;;8.66;76.46;95513.43;1786954;80;21001;-69
2022/05/03 04:54:37;;;;;;;31.77;25.07;;;;;;;8.75;76.34;95517.72;1753913;80;21463;-69
2022/05/03 04:57:07;;;;;;;24.70;11.63;;;;;;;8.83;76.70;95523.30;1787037;80;21060;-69
2022/05/03 04:59:36;;;;;;;13.17;5.73;;;;;;;8.92;75.91;95519.69;1785535;80;21024;-71
2022/05/03 05:02:03;;;;;;;15.77;7.23;;;;;;;9.01;74.75;95523.95;1752666;80;21093;-71
2022/05/03 05:04:30;;;;;;;13.37;5.83;;;;;;;9.16;75.04;95526.81;1786358;80;20982;-72
2022/05/03 05:06:56;;;;;;;9.97;4.60;;;;;;;9.32;74.73;95517.78;1785926;80;21475;-64
2022/05/03 05:09:23;;;;;;;8.93;4.77;;;;;;;9.48;73.69;95514.04;1785997;80;21117;-67
2022/05/03 05:11:50;;;;;;;8.80;4.50;;;;;;;9.61;73.20;95515.17;1785167;80;21111;-65
2022/05/03 05:14:20;;;;;;;13.13;5.07;;;;;;;9.73;73.09;95519.78;1786306;80;21463;-67
2022/05/03 05:16:49;;;;;;;10.97;6.10;;;;;;;9.89;73.72;95526.11;1786910;80;21005;-65
2022/05/03 05:19:16;;;;;;;12.67;6.63;;;;;;;10.09;73.72;95517.41;1786036;80;21172;-69
2022/05/03 05:21:43;;;;;;;12.13;5.27;;;;;;;10.27;73.55;95528.52;1785820;80;21582;-68
2022/05/03 05:24:11;;;;;;;11.27;5.97;;;;;;;10.37;72.73;95526.16;1786209;80;21057;-67
2022/05/03 05:26:39;;;;;;;11.83;5.30;;;;;;;10.44;71.60;95529.56;1786723;80;21053;-66
2022/05/03 05:29:05;;;;;;;11.60;6.60;;;;;;;10.50;70.23;95518.42;1785424;80;21047;-68
2022/05/03 05:31:33;;;;;;;8.87;6.47;;;;;;;10.54;70.88;95521.44;1786849;80;20970;-67
2022/05/03 05:34:00;;;;;;;10.93;6.60;;;;;;;10.63;70.60;95526.97;1785320;80;21049;-67
2022/05/03 05:36:27;;;;;;;15.10;6.53;;;;;;;10.65;70.05;95522.53;1786012;80;21062;-66
2022/05/03 05:38:53;;;;;;;12.23;6.50;;;;;;;10.71;69.24;95519.79;1786418;80;21037;-67
2022/05/03 05:41:20;;;;;;;12.53;6.00;;;;;;;10.85;70.53;95519.95;1786155;80;21535;-67
2022/05/03 05:43:47;;;;;;;11.20;6.13;;;;;;;11.03;71.18;95528.33;1786089;80;20978;-68
2022/05/03 05:46:14;;;;;;;11.27;7.33;;;;;;;11.14;70.33;95521.52;1787055;80;21009;-70
2022/05/03 05:48:41;;;;;;;13.83;9.07;;;;;;;11.31;70.83;95528.19;1787445;80;20978;-68
2022/05/03 05:51:08;;;;;;;10.77;6.10;;;;;;;11.44;70.18;95521.28;1785220;80;21064;-68
2022/05/03 05:53:35;;;;;;;16.60;7.15;;;;;;;11.59;70.25;95515.20;1786008;80;21068;-67
2022/05/03 05:56:04;;;;;;;9.63;5.90;;;;;;;11.71;70.03;95513.59;1786585;80;21522;-66
2022/05/03 05:58:31;;;;;;;7.95;4.00;;;;;;;11.83;69.61;95516.39;1789156;79;21009;-68
2022/05/03 06:00:58;;;;;;;4.62;4.17;;;;;;;11.92;67.46;95508.28;1792157;79;21101;-67
2022/05/03 06:03:27;;;;;;;8.08;4.00;;;;;;;12.02;67.99;95512.42;1754301;81;20971;-67
2022/05/03 06:05:53;;;;;;;6.03;4.58;;;;;;;12.08;65.17;95513.58;1762380;80;21024;-65
2022/05/03 06:08:20;;;;;;;15.80;10.72;;;;;;;12.17;65.96;95516.45;1756858;80;20994;-67
2022/05/03 06:10:49;;;;;;;20.35;16.82;;;;;;;12.26;65.39;95510.90;1754248;82;21048;-69
2022/05/03 06:13:16;;;;;;;10.50;5.70;;;;;;;12.44;66.00;95513.50;1722975;83;21086;-68
2022/05/03 06:15:42;;;;;;;7.03;5.50;;;;;;;12.60;66.06;95519.70;1754947;82;22253;-66
2022/05/03 06:18:10;;;;;;;6.90;4.50;;;;;;;12.75;65.73;95521.48;1724037;83;21501;-66
2022/05/03 06:20:37;;;;;;;10.08;4.30;;;;;;;12.96;65.17;95515.16;1755695;82;21041;-65
2022/05/03 06:23:05;;;;;;;5.62;3.83;;;;;;;13.25;64.88;95518.24;1714525;83;21168;-67
2022/05/03 06:25:31;;;;;;;11.68;4.97;;;;;;;13.42;61.20;95510.68;1742695;82;21050;-66
2022/05/03 06:27:58;;;;;;;5.78;3.40;;;;;;;13.61;61.05;95514.10;1764651;81;21002;-63
2022/05/03 06:30:24;;;;;;;6.67;3.83;;;;;;;13.78;61.17;95509.13;1731715;83;21038;-65
2022/05/03 06:32:51;;;;;;;7.75;3.40;;;;;;;13.90;60.45;95511.81;1764707;81;21001;-65
2022/05/03 06:35:21;;;;;;;7.85;3.40;;;;;;;14.03;60.34;95507.83;1732572;83;20999;-70
2022/05/03 06:37:47;;;;;;;10.50;3.58;;;;;;;14.15;58.69;95508.36;1764190;81;21490;-68
2022/05/03 06:40:14;;;;;;;3.80;3.40;;;;;;;14.22;59.27;95504.58;1731796;83;21041;-70
2022/05/03 06:42:41;;;;;;;4.22;3.40;;;;;;;14.29;59.54;95503.45;1763015;81;21076;-66
2022/05/03 06:45:10;;;;;;;5.17;3.22;;;;;;;14.38;58.91;95503.58;1731947;83;21096;-67
2022/05/03 06:47:39;;;;;;;5.78;2.87;;;;;;;14.45;58.48;95511.27;1764284;81;21499;-65
2022/05/03 06:50:08;;;;;;;5.00;3.27;;;;;;;14.57;57.05;95507.36;1706037;83;21022;-65
2022/05/03 06:52:42;;;;;;;4.03;3.27;;;;;;;14.63;56.97;95503.14;1764061;81;20966;-67
2022/05/03 06:55:23;;;;;;;3.22;2.92;;;;;;;14.69;56.26;95502.94;1731098;83;21576;-69
2022/05/03 06:57:50;;;;;;;4.37;3.08;;;;;;;14.76;56.65;95501.38;1763289;81;21064;-66
2022/05/03 07:00:18;;;;;;;4.10;3.10;;;;;;;14.79;56.14;95502.59;1732327;83;21677;-66
2022/05/03 07:02:44;;;;;;;3.62;3.05;;;;;;;14.80;55.59;95507.00;1763906;81;21021;-65
2022/05/03 07:05:11;;;;;;;4.65;3.27;;;;;;;14.76;56.19;95507.55;1732253;83;21057;-64
2022/05/03 07:07:39;;;;;;;4.00;3.17;;;;;;;14.71;55.45;95498.41;1764150;81;21029;-67
2022/05/03 07:10:07;;;;;;;4.53;3.08;;;;;;;14.76;56.73;95502.23;1732595;83;21046;-67
2022/05/03 07:12:34;;;;;;;4.58;3.02;;;;;;;14.76;56.61;95509.34;1763649;81;21001;-67
2022/05/03 07:15:07;;;;;;;3.67;3.15;;;;;;;14.77;56.06;95507.98;1731682;83;21097;-66
2022/05/03 07:23:06;;;;;;;4.55;3.35;;;;;;;14.73;56.32;95511.66;1763668;81;20966;-66
2022/05/03 07:25:33;;;;;;;3.40;3.10;;;;;;;14.81;56.51;95508.72;1763328;81;21552;-66
2022/05/03 07:28:00;;;;;;;5.95;3.33;;;;;;;14.91;57.00;95512.77;1763365;81;21555;-66
2022/05/03 07:30:27;;;;;;;3.80;3.50;;;;;;;14.92;55.56;95522.02;1764141;81;20967;-66
2022/05/03 07:32:54;;;;;;;3.95;3.50;;;;;;;14.97;56.17;95516.98;1763826;81;21060;-69
2022/05/03 07:35:21;;;;;;;4.53;3.25;;;;;;;15.08;56.26;95518.33;1762842;81;21549;-69
2022/05/03 07:37:47;;;;;;;7.40;3.70;;;;;;;15.18;55.77;95514.00;1763175;81;21088;-69
2022/05/03 07:40:14;;;;;;;6.42;3.37;;;;;;;15.24;55.67;95517.27;1736759;81;21037;-71
2022/05/03 07:42:41;;;;;;;8.48;5.25;;;;;;;15.35;55.85;95512.90;1764264;81;21495;-69
2022/05/03 07:45:09;;;;;;;5.10;3.85;;;;;;;15.49;55.86;95511.02;1762585;81;21514;-68
2022/05/03 07:47:37;;;;;;;4.05;2.83;;;;;;;15.55;54.99;95505.48;1763821;81;21096;-67
2022/05/03 07:50:06;;;;;;;6.97;3.87;;;;;;;15.62;55.31;95515.39;1763683;81;20942;-69
2022/05/03 07:52:32;;;;;;;6.35;3.50;;;;;;;15.68;55.54;95518.69;1763189;81;21096;-70
2022/05/03 07:54:59;;;;;;;3.90;3.40;;;;;;;15.70;54.34;95509.33;1763931;81;21052;-69
2022/05/03 07:57:26;;;;;;;4.85;3.62;;;;;;;15.73;54.77;95512.75;1764302;81;20974;-69
2022/05/03 07:59:57;;;;;;;5.78;3.45;;;;;;;15.76;54.58;95509.95;1764548;81;20992;-67
2022/05/03 08:02:23;;;;;;;5.92;3.47;;;;;;;15.93;55.31;95508.42;1762682;81;21567;-68
2022/05/03 08:04:52;;;;;;;5.42;3.10;;;;;;;16.17;52.30;95504.72;1762967;81;21048;-64
2022/05/03 08:07:19;;;;;;;3.95;3.15;;;;;;;16.17;52.30;95504.72;1763886;81;21045;-67
2022/05/03 08:09:48;;;;;;;4.65;3.67;;;;;;;16.41;52.79;95510.81;1764192;81;21060;-67
2022/05/03 08:12:16;;;;;;;4.03;3.47;;;;;;;16.65;52.56;95512.87;1736311;81;21511;-67
2022/05/03 08:14:43;;;;;;;6.20;3.50;;;;;;;16.75;49.34;95501.34;1763667;81;21036;-68
2022/05/03 08:17:10;;;;;;;5.10;3.40;;;;;;;16.75;49.34;95501.34;1763898;81;21112;-67
2022/05/03 08:19:37;;;;;;;4.70;3.25;;;;;;;16.96;48.34;95505.34;1764373;81;21009;-67
2022/05/03 08:22:04;;;;;;;5.72;4.08;;;;;;;16.74;46.14;95504.95;1763466;81;21099;-67
2022/05/03 08:24:31;;;;;;;5.10;3.30;;;;;;;16.64;48.95;95508.95;1763798;81;21025;-69
2022/05/03 08:26:59;;;;;;;6.25;3.72;;;;;;;16.65;49.74;95510.20;1763436;81;20989;-71
2022/05/03 08:29:27;;;;;;;5.35;3.30;;;;;;;16.67;48.93;95508.81;1763038;81;21068;-67
2022/05/03 08:31:53;;;;;;;3.80;3.15;;;;;;;16.69;49.08;95509.63;1763516;81;21029;-65
2022/05/03 08:34:20;;;;;;;6.03;3.12;;;;;;;16.76;49.08;95503.09;1763371;81;21040;-69
2022/05/03 08:42:01;;;;;;;4.42;3.10;;;;;;;16.91;48.66;95502.91;1764071;81;21009;-68
2022/05/03 08:42:06;;;;;;;8.20;3.80;;;;;;;17.46;49.10;95492.81;1764970;81;21013;-69
2022/05/03 08:44:34;;;;;;;5.67;4.15;;;;;;;17.70;46.28;95490.80;1764721;81;21007;-68
2022/05/03 08:47:05;;;;;;;5.65;3.77;;;;;;;17.94;46.96;95487.42;1764198;81;20989;-66
2022/05/03 08:50:08;;;;;;;5.28;3.15;;;;;;;18.08;45.17;95484.94;1763676;81;21013;-68
2022/05/03 08:52:50;;;;;;;3.60;3.22;;;;;;;18.28;45.36;95487.09;1763529;81;21028;-66
2022/05/03 08:55:18;;;;;;;6.20;2.80;;;;;;;18.58;43.65;95484.66;1764480;81;20981;-67
2022/05/03 08:57:45;;;;;;;9.30;3.00;;;;;;;18.69;43.76;95481.41;1763370;81;21095;-70
2022/05/03 09:00:17;;;;;;;5.35;2.87;;;;;;;18.95;43.80;95482.28;1763082;81;21132;-72
2022/05/03 09:02:55;;;;;;;4.97;2.87;;;;;;;19.15;43.06;95470.97;1763832;81;21498;-68
2022/05/03 09:05:24;;;;;;;3.10;2.80;;;;;;;19.33;41.00;95469.98;1763506;81;21068;-67
2022/05/03 09:07:59;;;;;;;4.53;3.02;;;;;;;19.40;40.86;95467.36;1763661;81;22182;-66
2022/05/03 09:10:32;;;;;;;3.20;2.72;;;;;;;19.56;40.80;95467.84;1764394;81;21507;-67
2022/05/03 09:13:24;;;;;;;6.28;3.40;;;;;;;19.63;41.92;95460.72;1764038;81;21022;-66
2022/05/03 09:15:58;;;;;;;4.10;3.15;;;;;;;19.71;40.70;95458.98;1760946;81;21009;-67
2022/05/03 09:18:29;;;;;;;5.40;3.02;;;;;;;19.87;40.23;95457.63;1764245;81;21060;-66
2022/05/03 09:23:47;;;;;;;4.95;2.98;;;;;;;20.01;40.75;95443.45;1763866;81;21033;-66
2022/05/03 09:26:26;;;;;;;3.52;3.00;;;;;;;20.19;38.29;95448.20;1764107;81;21065;-66
2022/05/03 09:29:08;;;;;;;3.17;2.87;;;;;;;20.29;38.61;95438.67;1764298;81;20982;-66
2022/05/03 09:31:47;;;;;;;4.62;3.40;;;;;;;20.42;38.82;95441.48;1736630;81;21048;-66
2022/05/03 09:34:25;;;;;;;5.28;3.10;;;;;;;20.45;38.48;95435.93;1764344;81;21005;-66
2022/05/03 09:37:04;;;;;;;4.10;2.85;;;;;;;20.34;38.70;95433.05;1764584;81;21136;-66
2022/05/03 09:39:37;;;;;;;3.22;2.60;;;;;;;20.12;38.70;95438.31;1764866;81;21017;-66
2022/05/03 09:42:14;;;;;;;3.67;3.27;;;;;;;19.92;38.63;95435.45;1764598;81;21066;-66
2022/05/03 09:45:02;;;;;;;6.00;4.70;;;;;;;19.69;39.45;95435.93;1764423;81;20990;-66
2022/05/03 09:47:51;;;;;;;3.15;2.70;;;;;;;19.56;40.42;95442.42;1764317;81;21025;-66
2022/05/03 09:50:41;;;;;;;2.98;2.60;;;;;;;19.50;40.97;95432.05;1764419;81;21487;-66
2022/05/03 09:53:21;;;;;;;4.10;2.60;;;;;;;19.42;40.22;95437.34;1763746;81;21567;-66
2022/05/03 09:55:49;;;;;;;3.30;2.65;;;;;;;19.18;39.66;95442.27;1764535;81;20989;-67
2022/05/03 09:58:19;;;;;;;2.75;2.37;;;;;;;19.10;39.30;95439.16;1764741;81;20982;-67
2022/05/03 10:00:48;;;;;;;3.15;2.55;;;;;;;19.08;40.99;95432.16;1764793;81;21404;-66
2022/05/03 10:03:15;;;;;;;4.10;2.55;;;;;;;19.19;41.60;95429.75;1764382;81;21018;-66
2022/05/03 10:05:45;;;;;;;3.17;2.85;;;;;;;19.52;42.83;95431.01;1763398;81;21494;-66
2022/05/03 10:08:16;;;;;;;3.47;2.77;;;;;;;19.80;39.03;95429.47;1763663;81;21033;-66
2022/05/03 10:10:44;;;;;;;6.47;2.70;;;;;;;19.93;38.87;95422.92;1763413;81;21503;-66
2022/05/03 10:13:14;;;;;;;4.42;3.58;;;;;;;19.79;38.53;95427.76;1763857;81;21093;-66
2022/05/03 10:21:31;;;;;;;4.00;3.52;;;;;;;18.95;39.64;95421.24;1765041;81;21042;-66
2022/05/03 10:24:12;;;;;;;6.40;4.03;;;;;;;18.69;40.91;95431.49;1758962;81;21025;-66
2022/05/03 10:27:01;;;;;;;6.12;3.67;;;;;;;18.54;42.18;95430.49;1756097;82;21002;-66
2022/05/03 10:29:33;;;;;;;3.55;2.50;;;;;;;18.34;43.45;95433.34;1724482;83;21003;-67
2022/05/03 10:32:10;;;;;;;2.77;2.10;;;;;;;17.99;42.47;95445.81;1756086;82;21562;-66
2022/05/03 10:34:56;;;;;;;4.47;2.10;;;;;;;17.55;39.42;95445.70;1724978;83;21019;-66
2022/05/03 10:37:35;;;;;;;4.58;2.20;;;;;;;17.20;41.12;95436.72;1724336;83;21123;-66
2022/05/03 10:40:14;;;;;;;3.95;2.60;;;;;;;17.10;44.75;95430.95;1756189;82;20974;-66
2022/05/03 10:42:41;;;;;;;5.22;2.20;;;;;;;17.08;44.70;95420.38;1724403;83;21080;-66
2022/05/03 10:45:13;;;;;;;3.25;2.40;;;;;;;16.90;45.21;95428.35;1724433;83;20953;-66
2022/05/03 10:47:50;;;;;;;2.15;1.95;;;;;;;16.90;46.24;95426.55;1756432;82;21128;-66
2022/05/03 10:50:26;;;;;;;2.42;2.22;;;;;;;16.80;47.40;95424.77;1756331;82;21014;-66
2022/05/03 10:53:07;;;;;;;2.75;1.65;;;;;;;16.74;47.71;95431.69;1724528;83;21034;-66
2022/05/03 10:55:41;;;;;;;5.12;2.30;;;;;;;16.66;51.22;95433.84;1724759;83;21037;-66
2022/05/03 10:58:41;;;;;;;4.62;2.87;;;;;;;16.64;47.08;95432.56;1751407;82;21066;-66
2022/05/03 11:01:20;;;;;;;2.22;1.98;;;;;;;16.68;46.77;95428.42;1724684;83;20971;-67
2022/05/03 11:04:01;;;;;;;2.42;2.10;;;;;;;16.81;46.33;95420.33;1724670;83;21013;-66
2022/05/03 11:06:32;;;;;;;3.90;2.10;;;;;;;16.87;44.38;95420.89;1756368;82;21047;-67
2022/05/03 11:11:43;;;;;;;4.17;2.42;;;;;;;16.91;44.37;95415.41;1724683;83;20985;-66
2022/05/03 11:14:22;;;;;;;3.67;2.20;;;;;;;16.81;44.93;95409.67;1756110;82;21002;-66
2022/05/03 11:17:05;;;;;;;3.30;2.17;;;;;;;16.76;46.32;95419.16;1756449;82;20989;-66
2022/05/03 11:19:49;;;;;;;2.30;2.00;;;;;;;16.70;45.33;95420.76;1724475;83;21496;-66
2022/05/03 11:22:26;;;;;;;2.55;1.92;;;;;;;16.66;46.18;95424.05;1724576;83;20965;-65
2022/05/03 11:24:55;;;;;;;3.60;2.00;;;;;;;16.54;45.13;95430.39;1763164;81;21009;-66
2022/05/03 11:27:23;;;;;;;3.60;2.02;;;;;;;16.24;44.57;95428.14;1732418;83;21030;-66
2022/05/03 11:29:57;;;;;;;5.97;1.95;;;;;;;15.93;46.45;95429.45;1732355;83;21040;-66
2022/05/03 11:32:37;;;;;;;3.33;2.20;;;;;;;15.49;47.67;95414.83;1764289;81;21514;-66
2022/05/03 11:35:12;;;;;;;4.55;2.12;;;;;;;15.49;47.67;95414.83;1764207;81;20969;-66
2022/05/03 11:37:49;;;;;;;2.50;2.17;;;;;;;15.35;48.70;95418.52;1764077;81;21029;-66
2022/05/03 11:40:20;;;;;;;3.33;2.30;;;;;;;15.27;49.45;95423.26;1732394;83;21054;-66
2022/05/03 11:42:49;;;;;;;3.87;2.58;;;;;;;15.17;49.54;95421.89;1732394;83;20976;-66
2022/05/03 11:45:17;;;;;;;3.95;2.95;;;;;;;15.17;49.58;95421.89;1734362;81;21025;-66
2022/05/03 11:47:50;;;;;;;10.40;4.60;;;;;;;15.15;50.52;95421.50;1763841;81;21006;-66
2022/05/03 11:56:00;;;;;;;19.20;13.00;;;;;;;15.07;52.10;95416.09;1732304;83;20999;-65
2022/05/03 11:58:32;;;;;;;4.30;2.72;;;;;;;14.93;52.04;95417.94;1764090;81;21053;-66
2022/05/03 12:00:59;;;;;;;3.00;2.65;;;;;;;14.93;50.44;95422.79;1703689;83;21491;-66
2022/05/03 12:03:27;;;;;;;4.33;3.33;;;;;;;14.98;50.94;95433.71;1763836;81;21085;-66
2022/05/03 12:06:03;;;;;;;4.35;1.95;;;;;;;15.03;52.36;95426.43;1732418;83;21050;-66
2022/05/03 12:08:33;;;;;;;2.77;1.90;;;;;;;15.02;51.30;95426.90;1731768;83;21013;-65
2022/05/03 12:11:00;;;;;;;3.15;1.80;;;;;;;14.90;49.83;95424.70;1764129;81;21009;-66
2022/05/03 12:13:30;;;;;;;5.45;1.67;;;;;;;14.76;49.91;95423.89;1732096;83;21007;-66
2022/05/03 12:16:03;;;;;;;2.08;1.50;;;;;;;14.67;49.98;95427.77;1764148;81;21034;-66
2022/05/03 12:18:41;;;;;;;5.92;1.98;;;;;;;14.51;50.50;95425.22;1732999;83;21072;-66
2022/05/03 12:21:15;;;;;;;5.75;1.70;;;;;;;14.47;51.10;95428.94;1732299;83;21001;-66
2022/05/03 12:23:51;;;;;;;3.92;1.95;;;;;;;14.48;51.15;95434.17;1765492;81;21048;-66
2022/05/03 12:26:25;;;;;;;2.17;1.82;;;;;;;14.43;50.53;95428.16;1769515;81;21061;-66
2022/05/03 12:28:58;;;;;;;3.47;1.85;;;;;;;14.46;50.86;95432.49;1737336;83;21094;-66
2022/05/03 12:31:37;;;;;;;1.90;1.60;;;;;;;14.43;51.02;95439.25;1769694;81;21041;-66
2022/05/03 12:34:13;;;;;;;3.85;1.92;;;;;;;14.18;51.39;95442.77;1737548;83;21593;-66
2022/05/03 12:36:44;;;;;;;4.62;1.80;;;;;;;14.24;51.93;95453.66;1737514;83;21013;-65